Skip Navigation

Christman Field Latest Observations

Switch to english unitsOther observation timesWeekly graphs

Date Time
MST
Temp
°C
RH
%
DewPt
°C
Wind
m/s
Dir
°
Gust
m/s
Dir
°
Press
hPa
Solar
W/m^2
Prec
mm
2018-04-21 08:15 0.6 100.0 0.6 1.4 306 1.7 306 846.32 99.3 0.00
2018-04-21 08:10 0.6 100.0 0.6 1.4 305 1.5 306 846.33 96.3 0.00
2018-04-21 08:05 0.6 100.0 0.6 1.3 304 1.5 303 846.33 98.8 0.00
2018-04-21 08:00 0.5 100.0 0.5 1.2 300 1.5 306 846.33 94.0 0.00
2018-04-21 07:55 0.5 100.0 0.5 1.2 315 1.4 317 846.36 82.3 0.25
2018-04-21 07:50 0.4 100.0 0.4 1.2 319 1.5 312 846.36 77.0 0.00
2018-04-21 07:45 0.3 100.0 0.3 1.5 314 1.7 313 846.34 61.8 0.00
2018-04-21 07:40 0.3 100.0 0.3 1.6 310 1.9 320 846.37 45.0 0.00
2018-04-21 07:35 0.3 100.0 0.3 1.7 321 1.9 323 846.40 36.4 0.25
2018-04-21 07:30 0.3 100.0 0.3 1.8 323 2.0 329 846.34 29.6 0.00
2018-04-21 07:25 0.3 100.0 0.3 1.7 334 2.0 331 846.36 26.9 0.00
2018-04-21 07:20 0.3 100.0 0.3 1.7 329 1.9 318 846.33 30.9 0.25
2018-04-21 07:15 0.3 100.0 0.3 1.7 317 1.9 314 846.27 33.7 0.00
2018-04-21 07:10 0.3 100.0 0.3 1.4 314 1.9 314 846.21 35.0 0.00
2018-04-21 07:05 0.3 100.0 0.3 1.2 340 1.6 347 846.20 29.5 0.00
2018-04-21 07:00 0.4 100.0 0.4 1.1 355 1.4 0 846.20 27.4 0.00
2018-04-21 06:55 0.4 100.0 0.4 1.2 359 1.3 359 846.19 34.0 0.00
2018-04-21 06:50 0.4 100.0 0.4 1.1 356 1.3 356 846.10 36.0 0.00
2018-04-21 06:45 0.5 100.0 0.5 0.7 349 0.9 349 846.07 34.3 0.00
2018-04-21 06:40 0.4 100.0 0.4 0.6 350 0.8 350 846.06 29.0 0.00
2018-04-21 06:35 0.4 100.0 0.4 0.2 332 0.4 332 845.98 23.1 0.00
2018-04-21 06:30 0.4 100.0 0.4 0.1 332 0.2 332 845.96 17.5 0.00
2018-04-21 06:25 0.5 100.0 0.5 0.1 303 0.3 303 845.93 15.5 0.00
2018-04-21 06:20 0.5 100.0 0.5 0.3 303 0.4 303 845.83 15.4 0.00
2018-04-21 06:15 0.5 100.0 0.5 0.5 303 0.7 303 845.74 11.4 0.00
2018-04-21 06:10 0.4 100.0 0.4 0.6 303 0.7 303 845.72 7.7 0.00
2018-04-21 06:05 0.4 100.0 0.4 0.8 303 1.1 303 845.71 6.9 0.00
2018-04-21 06:00 0.4 100.0 0.4 0.6 300 1.2 299 845.68 6.6 0.00
2018-04-21 05:55 0.4 100.0 0.4 0.0 315 0.5 315 845.60 5.0 0.00
2018-04-21 05:50 0.4 100.0 0.4 0.6 315 0.8 315 845.64 2.5 0.00